createdAt,value
2022-09-18T00:01:13.651Z,0.88
2022-09-18T00:03:41.968Z,1.08
2022-09-18T00:06:10.787Z,1.02
2022-09-18T00:08:38.645Z,0.80
2022-09-18T00:11:09.492Z,1.25
2022-09-18T00:13:37.291Z,0.75
2022-09-18T00:16:04.997Z,0.90
2022-09-18T00:18:32.164Z,1.48
2022-09-18T00:21:09.220Z,1.02
2022-09-18T00:23:36.455Z,1.35
2022-09-18T00:26:04.572Z,0.93
2022-09-18T00:28:32.128Z,1.02
2022-09-18T00:31:09.963Z,1.30
2022-09-18T00:33:37.703Z,0.80
2022-09-18T00:36:05.661Z,1.08
2022-09-18T00:38:32.999Z,1.02
2022-09-18T00:41:01.141Z,1.13
2022-09-18T00:43:29.782Z,0.90
2022-09-18T00:46:05.117Z,0.80
2022-09-18T00:48:46.738Z,1.15
2022-09-18T00:51:14.722Z,0.93
2022-09-18T00:53:45.349Z,0.93
2022-09-18T00:56:13.589Z,1.05
2022-09-18T00:58:40.816Z,0.98
2022-09-18T01:01:09.070Z,1.20
2022-09-18T01:03:36.922Z,0.95
2022-09-18T01:06:07.116Z,0.95
2022-09-18T01:08:36.946Z,1.15
2022-09-18T01:11:14.928Z,1.00
2022-09-18T01:14:00.305Z,0.93
2022-09-18T01:16:44.029Z,1.35
2022-09-18T01:19:20.966Z,1.33
2022-09-18T01:22:06.979Z,0.93
2022-09-18T01:24:34.103Z,1.55
2022-09-18T01:27:03.694Z,0.65
2022-09-18T01:29:35.739Z,1.23
2022-09-18T01:32:16.555Z,0.85
2022-09-18T01:34:47.322Z,0.80
2022-09-18T01:37:21.509Z,0.68
2022-09-18T01:40:04.155Z,0.88
2022-09-18T01:42:31.714Z,0.60
2022-09-18T01:45:00.173Z,0.80
2022-09-18T01:47:29.393Z,0.50
2022-09-18T01:49:59.527Z,1.20
2022-09-18T01:52:29.597Z,1.20
2022-09-18T01:54:58.222Z,1.13
2022-09-18T01:57:30.385Z,0.73
2022-09-18T02:00:00.289Z,1.50
2022-09-18T02:02:30.367Z,0.90
2022-09-18T02:04:59.880Z,1.65
2022-09-18T02:07:45.788Z,1.65
2022-09-18T02:10:12.928Z,1.52
2022-09-18T02:12:41.015Z,0.80
2022-09-18T02:15:13.402Z,0.98
2022-09-18T02:17:43.573Z,1.52
2022-09-18T02:20:13.918Z,1.40
2022-09-18T02:22:43.130Z,0.68
2022-09-18T02:25:11.063Z,1.50
2022-09-18T02:27:39.475Z,1.00
2022-09-18T02:30:07.650Z,1.05
2022-09-18T02:32:37.050Z,0.90
2022-09-18T02:35:04.731Z,0.80
2022-09-18T02:37:41.066Z,0.90
2022-09-18T02:40:15.238Z,1.40
2022-09-18T02:42:57.581Z,0.95
2022-09-18T02:45:43.749Z,0.90
2022-09-18T02:48:20.208Z,0.88
2022-09-18T02:50:55.487Z,0.80
2022-09-18T02:53:22.629Z,0.70
2022-09-18T02:55:52.290Z,0.88
2022-09-18T02:58:25.453Z,1.23
2022-09-18T03:00:56.594Z,1.25
2022-09-18T03:03:27.707Z,1.02
2022-09-18T03:05:54.862Z,0.82
2022-09-18T03:08:21.938Z,0.90
2022-09-18T03:10:49.076Z,1.00
2022-09-18T03:13:16.231Z,0.73
2022-09-18T03:15:43.333Z,0.90
2022-09-18T03:18:10.432Z,1.50
2022-09-18T03:20:37.563Z,1.50
2022-09-18T03:23:04.751Z,0.90
2022-09-18T03:25:31.886Z,1.45
2022-09-18T03:27:58.957Z,1.20
2022-09-18T03:30:26.048Z,1.20
2022-09-18T03:32:53.685Z,0.70
2022-09-18T03:35:20.902Z,1.00
2022-09-18T03:37:48.901Z,1.30
2022-09-18T03:40:16.282Z,1.40
2022-09-18T03:42:47.311Z,1.27
2022-09-18T03:45:14.470Z,1.27
2022-09-18T03:47:41.797Z,1.17
2022-09-18T03:50:09.078Z,0.98
2022-09-18T03:52:36.224Z,1.02
2022-09-18T03:55:03.301Z,2.75
2022-09-18T03:57:31.288Z,2.33
2022-09-18T03:59:58.375Z,1.20
2022-09-18T04:02:25.511Z,1.30
2022-09-18T04:04:53.891Z,1.52
2022-09-18T04:07:21.210Z,2.85
2022-09-18T04:09:48.335Z,1.60
2022-09-18T04:12:15.498Z,1.20
2022-09-18T04:14:42.620Z,1.25
2022-09-18T04:17:09.750Z,1.35
2022-09-18T04:19:36.881Z,1.15
2022-09-18T04:22:04.513Z,1.45
2022-09-18T04:24:31.896Z,1.77
2022-09-18T04:26:59.583Z,1.27
2022-09-18T04:29:26.785Z,1.38
2022-09-18T04:31:53.898Z,3.97
2022-09-18T04:34:21.200Z,4.70
2022-09-18T04:36:48.329Z,3.10
2022-09-18T04:39:15.463Z,2.72
2022-09-18T04:41:45.472Z,1.73
2022-09-18T04:44:12.720Z,2.20
2022-09-18T04:46:39.830Z,2.88
2022-09-18T04:49:06.935Z,3.95
2022-09-18T04:51:34.064Z,2.45
2022-09-18T04:54:01.332Z,3.55
2022-09-18T04:56:28.414Z,4.40
2022-09-18T04:58:55.517Z,3.42
2022-09-18T05:01:22.709Z,2.78
2022-09-18T05:03:49.908Z,2.80
2022-09-18T05:06:17.012Z,4.40
2022-09-18T05:08:44.075Z,2.00
2022-09-18T05:11:13.296Z,1.98
2022-09-18T05:13:40.790Z,2.67
2022-09-18T05:16:08.056Z,1.77
2022-09-18T05:18:35.298Z,1.80
2022-09-18T05:21:02.925Z,1.30
2022-09-18T05:23:30.052Z,1.88
2022-09-18T05:25:57.169Z,1.92
2022-09-18T05:28:24.253Z,4.28
2022-09-18T05:30:51.381Z,3.30
2022-09-18T05:33:18.460Z,1.88
2022-09-18T05:35:45.592Z,1.33
2022-09-18T05:38:13.016Z,1.67
2022-09-18T05:40:40.326Z,1.65
2022-09-18T05:43:07.464Z,1.60
2022-09-18T05:45:35.167Z,2.28
2022-09-18T05:48:03.606Z,1.92
2022-09-18T05:50:31.273Z,2.03
2022-09-18T05:53:02.598Z,2.95
2022-09-18T05:55:31.969Z,3.40
2022-09-18T05:58:00.250Z,2.53
2022-09-18T06:00:28.199Z,2.80
2022-09-18T06:02:56.294Z,3.40
2022-09-18T06:05:23.990Z,2.08
2022-09-18T06:07:53.681Z,1.50
2022-09-18T06:10:23.166Z,0.80
2022-09-18T06:12:50.353Z,1.52
2022-09-18T06:15:17.691Z,1.50
2022-09-18T06:17:51.684Z,1.88
2022-09-18T06:20:19.920Z,1.13
2022-09-18T06:22:47.178Z,0.80
2022-09-18T06:25:16.710Z,0.73
2022-09-18T06:27:43.822Z,1.00
2022-09-18T06:30:11.222Z,0.98
2022-09-18T06:32:38.449Z,1.17
2022-09-18T06:35:05.744Z,1.30
2022-09-18T06:37:32.977Z,1.70
2022-09-18T06:40:00.209Z,1.00
2022-09-18T06:42:27.606Z,1.65
2022-09-18T06:44:55.390Z,1.83
2022-09-18T06:47:22.540Z,3.33
2022-09-18T06:49:49.643Z,1.88
2022-09-18T06:52:16.726Z,1.17
2022-09-18T06:54:44.240Z,3.55
2022-09-18T06:57:11.455Z,4.82
2022-09-18T06:59:38.910Z,6.60
2022-09-18T07:02:06.971Z,9.38
2022-09-18T07:04:35.185Z,9.38
2022-09-18T07:07:02.286Z,3.92
2022-09-18T07:09:29.371Z,3.25
2022-09-18T07:11:58.007Z,2.00
2022-09-18T07:14:25.074Z,1.60
2022-09-18T07:16:52.157Z,1.48
2022-09-18T07:19:19.204Z,1.33
2022-09-18T07:21:46.269Z,2.00
2022-09-18T07:24:13.339Z,1.58
2022-09-18T07:26:40.406Z,1.40
2022-09-18T07:29:10.089Z,2.92
2022-09-18T07:31:37.757Z,1.40
2022-09-18T07:34:04.884Z,1.65
2022-09-18T07:36:32.897Z,1.60
2022-09-18T07:39:00.034Z,1.42
2022-09-18T07:41:27.155Z,18.77
2022-09-18T07:43:54.205Z,16.48
2022-09-18T07:46:21.401Z,13.43
2022-09-18T07:48:48.710Z,8.75
2022-09-18T07:51:15.967Z,2.03
2022-09-18T07:53:43.189Z,1.65
2022-09-18T07:56:10.821Z,1.00
2022-09-18T07:58:38.181Z,1.00
2022-09-18T08:01:06.079Z,1.33
2022-09-18T08:03:34.314Z,1.40
2022-09-18T08:06:04.232Z,1.02
2022-09-18T08:08:31.419Z,1.20
2022-09-18T08:10:58.565Z,1.13
2022-09-18T08:13:26.813Z,0.95
2022-09-18T08:15:53.952Z,1.23
2022-09-18T08:18:22.267Z,1.00
2022-09-18T08:20:49.384Z,0.82
2022-09-18T08:23:16.473Z,1.35
2022-09-18T08:25:43.581Z,1.20
2022-09-18T08:28:10.723Z,0.98
2022-09-18T08:30:38.352Z,1.55
2022-09-18T08:33:06.682Z,1.20
2022-09-18T08:35:34.326Z,2.35
2022-09-18T08:38:02.004Z,1.13
2022-09-18T08:40:49.415Z,1.50
2022-09-18T08:43:16.450Z,1.13
2022-09-18T08:45:56.375Z,0.90
2022-09-18T08:48:28.217Z,0.85
2022-09-18T08:51:04.868Z,1.08
2022-09-18T08:53:38.841Z,0.85
2022-09-18T08:56:07.691Z,1.35
2022-09-18T08:58:37.752Z,0.80
2022-09-18T09:01:11.707Z,1.35
2022-09-18T09:03:45.028Z,1.08
2022-09-18T09:06:19.827Z,0.82
2022-09-18T09:09:02.052Z,0.93
2022-09-18T09:11:50.387Z,0.95
2022-09-18T09:14:39.643Z,1.10
2022-09-18T09:17:29.429Z,0.80
2022-09-18T09:20:04.144Z,1.00
2022-09-18T09:22:37.181Z,0.52
2022-09-18T09:25:22.951Z,0.90
2022-09-18T09:27:55.132Z,0.90
2022-09-18T09:30:22.490Z,0.90
2022-09-18T09:32:52.585Z,0.90
2022-09-18T09:35:20.029Z,0.95
2022-09-18T09:37:47.861Z,1.00
2022-09-18T09:40:33.650Z,0.73
2022-09-18T09:43:17.964Z,0.80
2022-09-18T09:45:47.188Z,1.30
2022-09-18T09:48:23.642Z,0.80
2022-09-18T09:50:53.975Z,0.88
2022-09-18T09:53:24.285Z,0.93
2022-09-18T09:56:10.240Z,0.90
2022-09-18T09:58:46.046Z,0.85
2022-09-18T10:01:22.480Z,1.00
2022-09-18T10:03:52.737Z,0.85
2022-09-18T10:06:19.795Z,0.70
2022-09-18T10:08:53.180Z,0.77
2022-09-18T10:11:20.438Z,0.80
2022-09-18T10:13:53.447Z,1.00
2022-09-18T10:16:25.485Z,0.50
2022-09-18T10:18:54.907Z,0.90
2022-09-18T10:21:23.634Z,0.60
2022-09-18T10:24:01.110Z,0.75
2022-09-18T10:26:34.437Z,0.70
2022-09-18T10:29:02.130Z,0.70
2022-09-18T10:31:49.246Z,0.30
2022-09-18T10:34:33.107Z,0.77
2022-09-18T10:37:00.781Z,0.63
2022-09-18T10:39:37.779Z,0.40
2022-09-18T10:42:07.922Z,0.40
2022-09-18T10:44:40.621Z,0.28
2022-09-18T10:47:12.723Z,0.40
2022-09-18T10:49:49.777Z,0.40
2022-09-18T10:52:28.579Z,0.38
2022-09-18T10:55:03.487Z,0.45
2022-09-18T10:57:37.130Z,0.40
2022-09-18T11:00:25.127Z,0.35
2022-09-18T11:02:55.544Z,0.70
2022-09-18T11:05:24.049Z,0.80
2022-09-18T11:07:55.570Z,0.20
2022-09-18T11:10:24.571Z,0.50
2022-09-18T11:12:55.672Z,0.30
2022-09-18T11:15:25.466Z,0.38
2022-09-18T11:17:54.021Z,0.30
2022-09-18T11:20:24.703Z,0.30
2022-09-18T11:22:52.383Z,0.30
2022-09-18T11:25:24.490Z,0.50
2022-09-18T11:27:51.681Z,0.45
2022-09-18T11:30:26.723Z,0.30
2022-09-18T11:33:02.604Z,0.40
2022-09-18T11:35:30.813Z,0.22
2022-09-18T11:38:08.087Z,0.50
2022-09-18T11:40:46.061Z,0.32
2022-09-18T11:43:19.069Z,0.30
2022-09-18T11:45:46.148Z,0.45
2022-09-18T11:48:20.478Z,0.20
2022-09-18T11:50:47.772Z,0.43
2022-09-18T11:53:24.157Z,0.40
2022-09-18T11:56:07.562Z,0.30
2022-09-18T11:58:37.681Z,0.65
2022-09-18T12:01:18.869Z,0.40
2022-09-18T12:04:05.023Z,0.50
2022-09-18T12:06:35.682Z,0.40
2022-09-18T12:09:01.497Z,0.40
2022-09-18T12:11:28.781Z,0.35
2022-09-18T12:14:14.458Z,0.60
2022-09-18T12:16:46.113Z,0.40
2022-09-18T12:19:20.497Z,0.60
2022-09-18T12:21:50.541Z,0.30
2022-09-18T12:24:17.784Z,0.20
2022-09-18T12:27:05.116Z,0.30
2022-09-18T12:29:51.006Z,0.60
2022-09-18T12:32:28.815Z,0.45
2022-09-18T12:35:01.823Z,0.40
2022-09-18T12:37:32.727Z,0.50
2022-09-18T12:40:19.329Z,0.70
2022-09-18T12:42:56.613Z,0.63
2022-09-18T12:45:34.773Z,0.43
2022-09-18T12:48:11.184Z,0.50
2022-09-18T12:50:45.674Z,0.32
2022-09-18T12:53:22.260Z,0.50
2022-09-18T12:55:58.461Z,0.20
2022-09-18T12:58:37.716Z,0.38
2022-09-18T13:01:11.953Z,0.40
2022-09-18T13:03:41.204Z,0.50
2022-09-18T13:06:08.229Z,0.28
2022-09-18T13:08:45.109Z,0.30
2022-09-18T13:11:30.869Z,0.50
2022-09-18T13:14:00.299Z,0.50
2022-09-18T13:16:50.579Z,0.70
2022-09-18T13:19:28.589Z,0.30
2022-09-18T13:21:57.601Z,0.40
2022-09-18T13:24:27.440Z,0.20
2022-09-18T13:26:54.888Z,0.17
2022-09-18T13:29:40.811Z,0.35
2022-09-18T13:32:08.093Z,0.10
2022-09-18T13:34:37.135Z,0.40
2022-09-18T13:37:06.531Z,0.40
2022-09-18T13:39:50.581Z,0.20
2022-09-18T13:42:50.450Z,0.20
2022-09-18T13:45:17.538Z,0.20
2022-09-18T13:48:13.792Z,0.20
2022-09-18T13:50:58.209Z,0.20
2022-09-18T13:53:41.604Z,0.28
2022-09-18T13:56:10.712Z,0.73
2022-09-18T13:58:39.187Z,0.22
2022-09-18T14:01:10.482Z,0.40
2022-09-18T14:03:39.201Z,0.40
2022-09-18T14:06:24.852Z,0.50
2022-09-18T14:08:51.930Z,0.70
2022-09-18T14:11:24.178Z,0.45
2022-09-18T14:13:55.525Z,0.20
2022-09-18T14:16:23.843Z,0.20
2022-09-18T14:18:54.958Z,0.40
2022-09-18T14:21:22.023Z,0.32
2022-09-18T14:23:49.833Z,0.47
2022-09-18T14:26:29.235Z,0.50
2022-09-18T14:29:14.882Z,0.70
2022-09-18T14:31:42.000Z,0.50
2022-09-18T14:34:18.513Z,0.65
2022-09-18T14:36:49.792Z,0.50
2022-09-18T14:39:23.767Z,2.63
2022-09-18T14:41:52.434Z,2.15
2022-09-18T14:44:20.283Z,1.60
2022-09-18T14:46:58.131Z,3.10
2022-09-18T14:49:31.656Z,4.22
2022-09-18T14:54:31.590Z,1.80
2022-09-18T14:57:02.890Z,1.30
2022-09-18T14:59:30.013Z,1.00
2022-09-18T15:02:12.956Z,1.13
2022-09-18T15:04:42.558Z,1.30
2022-09-18T15:07:17.117Z,0.80
2022-09-18T15:09:44.888Z,0.60
2022-09-18T15:12:15.974Z,0.70
2022-09-18T15:14:47.511Z,0.90
2022-09-18T15:17:25.193Z,1.05
2022-09-18T15:19:56.050Z,0.90
2022-09-18T15:22:23.375Z,0.98
2022-09-18T15:24:50.695Z,1.00
2022-09-18T15:27:18.551Z,1.40
2022-09-18T15:29:46.384Z,1.30
2022-09-18T15:32:17.880Z,1.10
2022-09-18T15:34:48.081Z,1.70
2022-09-18T15:37:18.676Z,1.15
2022-09-18T15:39:48.172Z,1.50
2022-09-18T15:42:28.717Z,1.33
2022-09-18T15:45:01.969Z,1.30
2022-09-18T15:47:29.101Z,2.03
2022-09-18T15:49:56.765Z,1.50
2022-09-18T15:52:37.337Z,0.50
2022-09-18T15:55:10.472Z,0.50
2022-09-18T15:57:38.595Z,0.55
2022-09-18T16:00:10.892Z,0.65
2022-09-18T16:02:39.306Z,0.20
2022-09-18T16:05:10.405Z,0.73
2022-09-18T16:07:38.627Z,0.50
2022-09-18T16:10:25.873Z,0.63
2022-09-18T16:12:53.076Z,0.35
2022-09-18T16:15:21.761Z,0.77
2022-09-18T16:17:53.916Z,0.85
2022-09-18T16:20:25.685Z,0.40
2022-09-18T16:22:54.911Z,0.40
2022-09-18T16:25:27.767Z,0.32
2022-09-18T16:27:56.573Z,0.57
2022-09-18T16:30:24.478Z,0.40
2022-09-18T16:32:55.532Z,0.40
2022-09-18T16:35:22.604Z,0.70
2022-09-18T16:37:49.767Z,0.70
2022-09-18T16:40:18.824Z,0.70
2022-09-18T16:42:45.954Z,0.80
2022-09-18T16:45:14.329Z,0.90
2022-09-18T16:47:44.230Z,3.33
2022-09-18T16:50:12.188Z,3.85
2022-09-18T16:52:39.428Z,1.83
2022-09-18T16:55:07.444Z,0.80
2022-09-18T16:57:34.714Z,0.50
2022-09-18T17:00:05.071Z,0.80
2022-09-18T17:02:32.283Z,0.70
2022-09-18T17:05:01.663Z,0.70
2022-09-18T17:07:31.919Z,0.50
2022-09-18T17:09:59.162Z,1.83
2022-09-18T17:12:26.383Z,0.90
2022-09-18T17:14:53.527Z,0.47
2022-09-18T17:17:20.676Z,0.70
2022-09-18T17:19:47.928Z,0.70
2022-09-18T17:22:15.089Z,0.82
2022-09-18T17:24:42.149Z,0.98
2022-09-18T17:27:09.361Z,0.68
2022-09-18T17:29:36.447Z,0.50
2022-09-18T17:32:03.858Z,0.45
2022-09-18T17:34:30.993Z,0.65
2022-09-18T17:36:58.200Z,1.10
2022-09-18T17:39:25.258Z,1.00
2022-09-18T17:41:52.351Z,0.50
2022-09-18T17:44:20.234Z,0.60
2022-09-18T17:46:51.361Z,0.40
2022-09-18T17:49:18.764Z,0.50
2022-09-18T17:51:45.853Z,0.50
2022-09-18T17:54:13.045Z,0.60
2022-09-18T17:56:40.339Z,0.60
2022-09-18T17:59:08.965Z,0.70
2022-09-18T18:01:38.052Z,0.45
2022-09-18T18:04:05.857Z,0.60
2022-09-18T18:06:33.212Z,0.40
2022-09-18T18:09:00.727Z,0.52
2022-09-18T18:11:28.072Z,0.52
2022-09-18T18:13:56.248Z,0.73
2022-09-18T18:16:31.163Z,1.05
2022-09-18T18:18:59.913Z,1.00
2022-09-18T18:21:27.741Z,0.40
2022-09-18T18:23:55.943Z,0.68
2022-09-18T18:26:23.042Z,0.50
2022-09-18T18:28:50.418Z,0.40
2022-09-18T18:31:17.704Z,0.47
2022-09-18T18:33:44.982Z,0.73
2022-09-18T18:36:15.188Z,0.77
2022-09-18T18:38:43.128Z,0.70
2022-09-18T18:41:10.717Z,0.90
2022-09-18T18:43:40.327Z,1.35
2022-09-18T18:46:09.470Z,0.70
2022-09-18T18:48:38.861Z,0.80
2022-09-18T18:51:07.543Z,0.45
2022-09-18T18:53:38.135Z,0.70
2022-09-18T18:56:06.166Z,0.55
2022-09-18T18:58:33.600Z,0.70
2022-09-18T19:01:14.729Z,0.63
2022-09-18T19:03:45.922Z,0.80
2022-09-18T19:06:14.709Z,0.70
2022-09-18T19:08:43.196Z,0.60
2022-09-18T19:11:10.516Z,0.57
2022-09-18T19:13:46.618Z,0.50
2022-09-18T19:16:14.016Z,0.50
2022-09-18T19:18:41.769Z,0.60
2022-09-18T19:21:11.868Z,0.50
2022-09-18T19:23:38.945Z,0.50
2022-09-18T19:26:06.372Z,0.75
2022-09-18T19:28:33.689Z,0.65
2022-09-18T19:31:04.510Z,0.60
2022-09-18T19:33:33.324Z,0.80
2022-09-18T19:36:05.200Z,0.80
2022-09-18T19:38:36.540Z,0.63
2022-09-18T19:41:18.915Z,0.60
2022-09-18T19:43:46.373Z,0.60
2022-09-18T19:46:16.753Z,0.50
2022-09-18T19:48:45.184Z,0.68
2022-09-18T19:51:12.540Z,0.60
2022-09-18T19:53:39.804Z,0.50
2022-09-18T19:56:22.831Z,0.50
2022-09-18T19:58:58.948Z,0.65
2022-09-18T20:01:26.320Z,0.63
2022-09-18T20:03:54.986Z,0.73
2022-09-18T20:06:23.140Z,0.75
2022-09-18T20:08:50.617Z,0.73
2022-09-18T20:11:17.954Z,0.70
2022-09-18T20:13:49.163Z,0.70
2022-09-18T20:16:16.731Z,0.50
2022-09-18T20:18:45.016Z,0.50
2022-09-18T20:21:14.334Z,0.60
2022-09-18T20:23:41.710Z,0.70
2022-09-18T20:26:13.523Z,0.70
2022-09-18T20:28:40.960Z,1.00
2022-09-18T20:31:10.610Z,0.70
2022-09-18T20:33:38.127Z,0.77
2022-09-18T20:36:05.889Z,0.70
2022-09-18T20:38:33.804Z,0.63
2022-09-18T20:41:06.529Z,0.88
2022-09-18T20:43:35.923Z,0.63
2022-09-18T20:46:05.519Z,0.90
2022-09-18T20:48:38.174Z,0.90
2022-09-18T20:51:09.484Z,0.60
2022-09-18T20:53:40.886Z,0.30
2022-09-18T20:56:09.089Z,0.45
2022-09-18T20:58:37.030Z,0.55
2022-09-18T21:01:14.677Z,0.90
2022-09-18T21:03:43.591Z,0.57
2022-09-18T21:06:23.595Z,0.50
2022-09-18T21:08:53.637Z,0.50
2022-09-18T21:11:24.621Z,0.57
2022-09-18T21:13:53.237Z,0.70
2022-09-18T21:16:22.313Z,0.68
2022-09-18T21:18:50.432Z,0.90
2022-09-18T21:21:17.768Z,1.17
2022-09-18T21:23:53.865Z,0.85
2022-09-18T21:26:21.521Z,0.70
2022-09-18T21:28:52.247Z,0.60
2022-09-18T21:31:19.787Z,0.68
2022-09-18T21:33:47.305Z,0.70
2022-09-18T21:36:14.931Z,0.40
2022-09-18T21:38:42.240Z,0.57
2022-09-18T21:41:10.877Z,0.68
2022-09-18T21:43:38.240Z,0.90
2022-09-18T21:46:11.453Z,0.98
2022-09-18T21:48:42.329Z,0.70
2022-09-18T21:51:12.055Z,0.50
2022-09-18T21:53:40.190Z,0.40
2022-09-18T21:56:08.859Z,0.63
2022-09-18T21:58:40.070Z,0.60
2022-09-18T22:01:15.730Z,0.40
2022-09-18T22:03:53.387Z,0.65
2022-09-18T22:06:21.435Z,0.30
2022-09-18T22:08:50.409Z,0.40
2022-09-18T22:11:22.039Z,0.57
2022-09-18T22:13:49.412Z,0.40
2022-09-18T22:16:16.652Z,0.85
2022-09-18T22:18:43.725Z,0.52
2022-09-18T22:21:24.300Z,0.38
2022-09-18T22:23:53.239Z,0.57
2022-09-18T22:26:25.007Z,0.68
2022-09-18T22:28:57.028Z,0.50
2022-09-18T22:31:25.225Z,0.50
2022-09-18T22:33:56.470Z,0.57
2022-09-18T22:36:23.804Z,0.50
2022-09-18T22:38:51.445Z,0.47
2022-09-18T22:41:18.891Z,1.42
2022-09-18T22:43:45.983Z,0.55
2022-09-18T22:46:14.703Z,0.70
2022-09-18T22:48:42.249Z,0.50
2022-09-18T22:51:09.345Z,0.50
2022-09-18T22:53:37.266Z,0.70
2022-09-18T22:56:12.440Z,0.40
2022-09-18T22:58:41.394Z,0.40
2022-09-18T23:01:15.164Z,0.55
2022-09-18T23:03:42.920Z,0.32
2022-09-18T23:06:10.132Z,0.60
2022-09-18T23:08:37.793Z,0.90
2022-09-18T23:11:05.087Z,0.77
2022-09-18T23:13:32.572Z,0.52
2022-09-18T23:16:07.545Z,0.35
2022-09-18T23:18:34.810Z,0.40
2022-09-18T23:21:03.174Z,0.73
2022-09-18T23:23:31.664Z,0.50
2022-09-18T23:26:03.566Z,0.50
2022-09-18T23:28:34.888Z,0.50
2022-09-18T23:31:06.584Z,0.77
2022-09-18T23:33:33.844Z,0.55
2022-09-18T23:36:08.051Z,0.35
2022-09-18T23:38:35.158Z,0.32
2022-09-18T23:41:03.164Z,0.40
2022-09-18T23:43:30.274Z,0.65
2022-09-18T23:45:57.797Z,0.52
2022-09-18T23:48:25.210Z,0.40
2022-09-18T23:50:52.408Z,0.63
2022-09-18T23:53:19.988Z,0.32
2022-09-18T23:55:47.979Z,0.55
2022-09-18T23:58:15.726Z,0.40
